createdAt,value
2019-03-15T00:00:29.620Z,6.40
2019-03-15T00:02:59.461Z,6.30
2019-03-15T00:05:29.437Z,6.40
2019-03-15T00:07:59.386Z,6.40
2019-03-15T00:10:29.264Z,6.40
2019-03-15T00:16:31.984Z,6.30
2019-03-15T00:19:02.029Z,6.50
2019-03-15T00:21:32.441Z,6.40
2019-03-15T00:24:02.525Z,6.40
2019-03-15T00:30:35.222Z,6.50
2019-03-15T00:33:05.978Z,6.40
2019-03-15T00:35:36.241Z,6.40
2019-03-15T00:38:06.358Z,6.30
2019-03-15T00:40:37.551Z,6.40
2019-03-15T00:46:39.786Z,6.40
2019-03-15T00:49:09.705Z,6.40
2019-03-15T00:51:39.562Z,6.30
2019-03-15T00:54:09.776Z,6.30
2019-03-15T00:56:39.636Z,6.30
2019-03-15T00:59:09.590Z,6.30
2019-03-15T01:01:39.547Z,6.30
2019-03-15T01:04:09.782Z,6.20
2019-03-15T01:06:40.260Z,6.20
2019-03-15T01:09:10.372Z,6.20
2019-03-15T01:15:48.862Z,6.20
2019-03-15T01:18:18.644Z,6.30
2019-03-15T01:20:49.116Z,6.20
2019-03-15T01:23:19.254Z,6.10
2019-03-15T01:25:49.304Z,6.10
2019-03-15T01:31:51.960Z,6.20
2019-03-15T01:34:21.736Z,6.20
2019-03-15T01:36:52.102Z,6.10
2019-03-15T01:39:21.958Z,6.10
2019-03-15T01:41:51.869Z,6.20
2019-03-15T01:44:21.664Z,6.20
2019-03-15T01:46:52.168Z,6.20
2019-03-15T01:49:22.225Z,6.20
2019-03-15T01:51:52.592Z,6.20
2019-03-15T01:54:22.588Z,6.20
2019-03-15T02:01:01.340Z,6.30
2019-03-15T02:03:31.654Z,6.30
2019-03-15T02:06:01.630Z,6.30
2019-03-15T02:08:31.580Z,6.30
2019-03-15T02:11:01.925Z,6.30
2019-03-15T02:13:31.968Z,6.20
2019-03-15T02:16:01.847Z,6.20
2019-03-15T02:18:31.870Z,6.20
2019-03-15T02:21:01.838Z,6.20
2019-03-15T02:23:31.826Z,6.30
2019-03-15T02:26:01.848Z,6.30
2019-03-15T02:28:32.108Z,6.30
2019-03-15T02:31:02.135Z,6.30
2019-03-15T02:33:33.447Z,6.30
2019-03-15T02:36:03.687Z,6.30
2019-03-15T02:38:33.535Z,6.40
2019-03-15T02:41:03.424Z,6.40
2019-03-15T02:43:35.068Z,6.40
2019-03-15T02:46:05.324Z,6.40
2019-03-15T02:48:35.099Z,6.40
2019-03-15T02:51:05.421Z,6.40
2019-03-15T02:53:35.339Z,6.40
2019-03-15T02:56:05.158Z,6.40
2019-03-15T02:58:35.080Z,6.40
2019-03-15T03:01:05.254Z,6.50
2019-03-15T03:03:35.144Z,6.50
2019-03-15T03:06:05.111Z,6.40
2019-03-15T03:08:35.143Z,6.40
2019-03-15T03:11:04.858Z,6.40
2019-03-15T03:13:34.750Z,6.40
2019-03-15T03:16:04.898Z,6.40
2019-03-15T03:18:34.875Z,6.40
2019-03-15T03:21:05.010Z,6.30
2019-03-15T03:23:34.716Z,6.30
2019-03-15T03:26:04.770Z,6.20
2019-03-15T03:28:34.629Z,6.20
2019-03-15T03:31:04.732Z,6.20
2019-03-15T03:33:34.896Z,6.20
2019-03-15T03:36:05.340Z,6.10
2019-03-15T03:38:35.448Z,6.10
2019-03-15T03:41:05.359Z,6.10
2019-03-15T03:47:07.987Z,6.00
2019-03-15T03:49:37.731Z,6.10
2019-03-15T03:52:07.631Z,6.10
2019-03-15T03:54:37.831Z,6.10
2019-03-15T03:57:07.597Z,6.10
2019-03-15T03:59:37.601Z,6.20
2019-03-15T04:02:07.643Z,6.20
2019-03-15T04:04:37.899Z,6.20
2019-03-15T04:07:07.778Z,6.30
2019-03-15T04:09:37.807Z,6.30
2019-03-15T04:12:07.816Z,6.40
2019-03-15T04:14:37.939Z,6.40
2019-03-15T04:17:08.169Z,6.40
2019-03-15T04:19:38.128Z,6.40
2019-03-15T04:22:08.151Z,6.40
2019-03-15T04:24:38.010Z,6.50
2019-03-15T04:27:09.416Z,6.50
2019-03-15T04:29:39.100Z,6.50
2019-03-15T04:32:08.891Z,6.50
2019-03-15T04:34:39.105Z,6.60
2019-03-15T04:37:09.520Z,6.60
2019-03-15T04:39:40.264Z,6.60
2019-03-15T04:48:40.170Z,6.60
2019-03-15T04:51:10.497Z,6.60
2019-03-15T04:53:40.651Z,6.60
2019-03-15T04:56:11.316Z,6.60
2019-03-15T04:58:41.594Z,6.60
2019-03-15T05:01:11.638Z,6.70
2019-03-15T05:03:41.819Z,6.70
2019-03-15T05:06:12.156Z,6.70
2019-03-15T05:08:42.002Z,6.70
2019-03-15T05:11:11.918Z,6.70
2019-03-15T05:13:42.308Z,6.70
2019-03-15T05:16:12.510Z,6.70
2019-03-15T05:18:42.770Z,6.70
2019-03-15T05:21:17.680Z,6.70
2019-03-15T05:23:47.724Z,6.60
2019-03-15T05:26:17.890Z,6.50
2019-03-15T05:28:47.946Z,6.50
2019-03-15T05:31:17.832Z,6.50
2019-03-15T05:33:47.626Z,6.50
2019-03-15T05:36:17.383Z,6.50
2019-03-15T05:38:47.540Z,6.60
2019-03-15T05:41:17.528Z,6.60
2019-03-15T05:43:47.783Z,6.60
2019-03-15T05:46:17.780Z,6.70
2019-03-15T05:48:50.586Z,6.70
2019-03-15T05:51:20.360Z,6.80
2019-03-15T05:53:50.310Z,6.80
2019-03-15T05:56:20.424Z,6.90
2019-03-15T05:58:50.436Z,6.90
2019-03-15T06:01:20.328Z,6.90
2019-03-15T06:03:50.380Z,6.90
2019-03-15T06:06:20.566Z,6.90
2019-03-15T06:08:50.641Z,7.00
2019-03-15T06:11:20.520Z,7.00
2019-03-15T06:13:50.530Z,7.00
2019-03-15T06:16:52.130Z,7.00
2019-03-15T06:20:14.769Z,6.90
2019-03-15T06:30:36.376Z,7.00
2019-03-15T06:33:16.300Z,7.00
2019-03-15T06:35:47.624Z,7.00
2019-03-15T06:38:25.060Z,7.00
2019-03-15T06:41:24.485Z,7.00
2019-03-15T06:50:44.935Z,7.00
2019-03-15T06:53:15.001Z,7.00
2019-03-15T06:55:44.981Z,7.10
2019-03-15T06:58:14.842Z,7.00
2019-03-15T07:00:45.874Z,7.00
2019-03-15T07:03:15.619Z,7.10
2019-03-15T07:05:45.495Z,7.10
2019-03-15T07:08:15.374Z,7.10
2019-03-15T07:10:45.073Z,7.10
2019-03-15T07:13:14.905Z,7.00
2019-03-15T07:15:44.766Z,7.00
2019-03-15T07:18:14.621Z,7.00
2019-03-15T07:20:44.468Z,7.00
2019-03-15T07:23:14.261Z,7.00
2019-03-15T07:25:44.442Z,7.00
2019-03-15T07:28:14.581Z,7.00
2019-03-15T07:30:44.455Z,7.10
2019-03-15T07:33:14.435Z,7.00
2019-03-15T07:35:44.390Z,7.00
2019-03-15T07:38:14.641Z,7.00
2019-03-15T07:40:44.491Z,7.00
2019-03-15T07:43:14.450Z,7.00
2019-03-15T07:45:44.317Z,7.00
2019-03-15T07:48:22.270Z,7.00
2019-03-15T07:50:45.581Z,7.00
2019-03-15T07:53:15.547Z,7.00
2019-03-15T07:55:45.307Z,7.00
2019-03-15T07:58:15.293Z,7.00
2019-03-15T08:00:45.591Z,7.10
2019-03-15T08:03:15.455Z,7.10
2019-03-15T08:05:45.492Z,7.20
2019-03-15T08:08:15.314Z,7.20
2019-03-15T08:10:45.590Z,7.30
2019-03-15T08:13:15.546Z,7.30
2019-03-15T08:15:45.561Z,7.30
2019-03-15T08:18:15.489Z,7.30
2019-03-15T08:20:45.499Z,7.40
2019-03-15T08:23:15.309Z,7.40
2019-03-15T08:25:45.097Z,7.40
2019-03-15T08:32:29.469Z,7.60
2019-03-15T08:34:59.344Z,7.70
2019-03-15T08:37:29.177Z,7.90
2019-03-15T08:39:59.060Z,8.00
2019-03-15T08:42:28.969Z,8.10
2019-03-15T08:44:58.751Z,8.30
2019-03-15T08:47:28.837Z,8.40
2019-03-15T08:49:58.547Z,8.50
2019-03-15T08:52:28.493Z,8.60
2019-03-15T08:55:05.003Z,8.60
2019-03-15T08:57:30.150Z,8.70
2019-03-15T09:00:00.114Z,8.60
2019-03-15T09:02:29.891Z,8.70
2019-03-15T09:04:59.757Z,8.70
2019-03-15T09:07:29.599Z,8.70
2019-03-15T09:09:59.394Z,8.80
2019-03-15T09:12:29.290Z,8.90
2019-03-15T09:14:59.127Z,9.00
2019-03-15T09:17:29.106Z,9.10
2019-03-15T09:19:58.837Z,9.20
2019-03-15T09:22:28.833Z,9.20
2019-03-15T09:24:58.645Z,9.30
2019-03-15T09:27:28.559Z,9.40
2019-03-15T09:29:58.388Z,9.50
2019-03-15T09:32:28.278Z,9.50
2019-03-15T09:34:58.150Z,9.60
2019-03-15T09:37:28.079Z,9.70
2019-03-15T09:39:57.923Z,9.90
2019-03-15T09:42:28.232Z,10.00
2019-03-15T09:44:58.117Z,10.00
2019-03-15T09:47:27.944Z,10.10
2019-03-15T09:49:57.775Z,10.20
2019-03-15T09:52:27.682Z,10.30
2019-03-15T09:54:57.596Z,10.40
2019-03-15T09:57:27.384Z,10.50
2019-03-15T09:59:57.249Z,10.50
2019-03-15T10:02:30.635Z,10.50
2019-03-15T10:05:10.247Z,10.60
2019-03-15T10:07:38.270Z,10.80
2019-03-15T10:10:12.921Z,11.00
2019-03-15T10:12:33.438Z,11.20
2019-03-15T10:15:03.288Z,11.40
2019-03-15T10:17:33.186Z,11.40
2019-03-15T10:20:03.035Z,11.50
2019-03-15T10:22:32.852Z,11.60
2019-03-15T10:25:02.849Z,11.70
2019-03-15T10:27:32.963Z,11.80
2019-03-15T10:30:02.848Z,11.90
2019-03-15T10:32:32.780Z,12.00
2019-03-15T10:35:02.623Z,12.10
2019-03-15T10:37:32.548Z,12.20
2019-03-15T10:40:02.460Z,12.30
2019-03-15T10:42:32.235Z,12.40
2019-03-15T10:45:02.267Z,12.40
2019-03-15T10:47:32.201Z,12.40
2019-03-15T10:50:01.935Z,12.40
2019-03-15T10:52:32.015Z,12.40
2019-03-15T10:55:02.194Z,12.50
2019-03-15T10:57:32.141Z,12.40
2019-03-15T11:00:01.921Z,12.50
2019-03-15T11:02:31.785Z,12.50
2019-03-15T11:05:01.707Z,12.50
2019-03-15T11:07:31.497Z,12.60
2019-03-15T11:10:01.271Z,12.60
2019-03-15T11:12:31.167Z,12.60
2019-03-15T11:18:33.498Z,12.30
2019-03-15T11:21:03.406Z,12.10
2019-03-15T11:23:33.155Z,12.00
2019-03-15T11:26:12.975Z,12.00
2019-03-15T11:28:34.503Z,11.90
2019-03-15T11:31:04.351Z,11.80
2019-03-15T11:33:34.307Z,11.90
2019-03-15T11:36:04.327Z,11.90
2019-03-15T11:38:34.181Z,11.90
2019-03-15T11:41:04.177Z,11.90
2019-03-15T11:43:34.609Z,11.90
2019-03-15T11:46:04.535Z,11.90
2019-03-15T11:48:34.903Z,11.90
2019-03-15T11:51:04.877Z,11.90
2019-03-15T11:53:34.677Z,11.90
2019-03-15T11:56:04.586Z,11.90
2019-03-15T11:58:34.460Z,11.70
2019-03-15T12:01:04.423Z,11.60
2019-03-15T12:03:34.730Z,11.50
2019-03-15T12:06:04.970Z,11.50
2019-03-15T12:08:34.838Z,11.50
2019-03-15T12:11:04.757Z,11.50
2019-03-15T12:13:34.600Z,11.60
2019-03-15T12:16:04.451Z,11.60
2019-03-15T12:18:34.313Z,11.70
2019-03-15T12:21:04.218Z,11.80
2019-03-15T12:23:34.010Z,11.90
2019-03-15T12:26:03.999Z,12.10
2019-03-15T12:28:33.812Z,12.10
2019-03-15T12:31:03.744Z,12.10
2019-03-15T12:33:33.654Z,12.20
2019-03-15T12:36:03.636Z,12.20
2019-03-15T12:38:33.745Z,12.40
2019-03-15T12:41:03.637Z,12.60
2019-03-15T12:43:33.643Z,12.70
2019-03-15T12:46:03.587Z,12.80
2019-03-15T12:48:33.546Z,12.90
2019-03-15T12:51:03.475Z,12.90
2019-03-15T12:53:33.371Z,12.90
2019-03-15T12:56:03.407Z,12.90
2019-03-15T12:58:33.263Z,12.80
2019-03-15T13:01:03.058Z,12.80
2019-03-15T13:03:32.998Z,12.70
2019-03-15T13:06:03.012Z,12.60
2019-03-15T13:08:32.933Z,12.60
2019-03-15T13:11:03.065Z,12.50
2019-03-15T13:13:33.013Z,12.50
2019-03-15T13:16:03.147Z,12.40
2019-03-15T13:18:33.133Z,12.30
2019-03-15T13:21:03.234Z,12.20
2019-03-15T13:23:33.478Z,12.10
2019-03-15T13:26:03.462Z,12.00
2019-03-15T13:28:33.708Z,11.90
2019-03-15T13:31:03.516Z,11.80
2019-03-15T13:33:33.368Z,11.70
2019-03-15T13:36:03.197Z,11.60
2019-03-15T13:38:33.190Z,11.50
2019-03-15T13:41:02.982Z,11.50
2019-03-15T13:43:33.257Z,11.40
2019-03-15T13:46:03.059Z,11.40
2019-03-15T13:48:33.095Z,11.40
2019-03-15T13:51:02.934Z,11.40
2019-03-15T13:53:32.772Z,11.40
2019-03-15T13:56:02.627Z,11.20
2019-03-15T13:58:33.305Z,10.90
2019-03-15T14:01:03.148Z,10.50
2019-03-15T14:03:32.904Z,10.30
2019-03-15T14:06:02.797Z,10.10
2019-03-15T14:08:33.034Z,9.80
2019-03-15T14:11:02.931Z,9.60
2019-03-15T14:13:32.792Z,9.50
2019-03-15T14:16:02.729Z,9.50
2019-03-15T14:18:32.870Z,9.50
2019-03-15T14:21:02.658Z,9.50
2019-03-15T14:23:32.527Z,9.60
2019-03-15T14:26:02.559Z,9.70
2019-03-15T14:28:32.446Z,9.80
2019-03-15T14:31:02.821Z,9.90
2019-03-15T14:33:33.158Z,10.00
2019-03-15T14:36:04.102Z,10.00
2019-03-15T14:38:34.511Z,10.20
2019-03-15T14:41:07.497Z,10.20
2019-03-15T14:43:36.807Z,10.30
2019-03-15T14:46:06.638Z,10.30
2019-03-15T14:48:36.530Z,10.40
2019-03-15T14:51:06.302Z,10.50
2019-03-15T14:53:36.208Z,10.60
2019-03-15T14:56:05.946Z,10.60
2019-03-15T14:58:37.590Z,10.60
2019-03-15T15:01:07.547Z,10.70
2019-03-15T15:03:37.449Z,10.80
2019-03-15T15:06:07.346Z,10.80
2019-03-15T15:08:37.132Z,10.90
2019-03-15T15:11:06.950Z,10.90
2019-03-15T15:13:36.806Z,11.00
2019-03-15T15:16:06.588Z,11.00
2019-03-15T15:18:36.407Z,11.00
2019-03-15T15:21:06.378Z,11.00
2019-03-15T15:23:36.170Z,11.00
2019-03-15T15:26:06.008Z,11.10
2019-03-15T15:28:35.906Z,11.10
2019-03-15T15:31:06.032Z,11.10
2019-03-15T15:33:36.140Z,11.10
2019-03-15T15:36:05.876Z,11.10
2019-03-15T15:38:35.667Z,11.10
2019-03-15T15:41:05.562Z,11.20
2019-03-15T15:43:35.599Z,11.20
2019-03-15T15:46:05.556Z,11.20
2019-03-15T15:48:35.388Z,11.20
2019-03-15T15:51:05.197Z,11.20
2019-03-15T15:53:35.098Z,11.10
2019-03-15T15:56:05.008Z,11.10
2019-03-15T15:58:34.961Z,11.10
2019-03-15T16:01:12.631Z,11.00
2019-03-15T16:03:43.201Z,11.00
2019-03-15T16:06:13.135Z,11.00
2019-03-15T16:08:43.076Z,11.00
2019-03-15T16:11:13.273Z,10.90
2019-03-15T16:13:43.167Z,10.80
2019-03-15T16:16:13.137Z,10.80
2019-03-15T16:18:42.991Z,10.80
2019-03-15T16:21:13.120Z,10.80
2019-03-15T16:23:43.037Z,10.70
2019-03-15T16:26:12.829Z,10.70
2019-03-15T16:28:42.663Z,10.70
2019-03-15T16:31:12.734Z,10.60
2019-03-15T16:33:42.494Z,10.60
2019-03-15T16:36:12.394Z,10.60
2019-03-15T16:38:42.174Z,10.50
2019-03-15T16:41:12.178Z,10.50
2019-03-15T16:43:42.227Z,10.50
2019-03-15T16:46:12.017Z,10.50
2019-03-15T16:48:41.940Z,10.50
2019-03-15T16:51:19.451Z,10.50
2019-03-15T16:53:43.465Z,10.50
2019-03-15T16:56:13.326Z,10.40
2019-03-15T16:58:45.603Z,10.40
2019-03-15T17:01:15.061Z,10.40
2019-03-15T17:03:44.776Z,10.30
2019-03-15T17:06:14.559Z,10.30
2019-03-15T17:08:44.399Z,10.20
2019-03-15T17:11:14.169Z,10.10
2019-03-15T17:18:11.267Z,9.90
2019-03-15T17:20:44.066Z,9.90
2019-03-15T17:23:14.252Z,9.80
2019-03-15T17:25:44.184Z,9.70
2019-03-15T17:28:14.020Z,9.60
2019-03-15T17:30:43.807Z,9.60
2019-03-15T17:33:13.671Z,9.50
2019-03-15T17:35:43.535Z,9.50
2019-03-15T17:38:13.341Z,9.60
2019-03-15T17:40:43.203Z,9.60
2019-03-15T17:43:13.151Z,9.60
2019-03-15T17:45:43.162Z,9.50
2019-03-15T17:48:13.012Z,9.40
2019-03-15T17:50:42.937Z,9.30
2019-03-15T17:53:12.953Z,9.30
2019-03-15T17:55:42.814Z,9.20
2019-03-15T17:58:12.698Z,9.20
2019-03-15T18:00:44.052Z,9.20
2019-03-15T18:03:20.892Z,9.20
2019-03-15T18:05:45.957Z,9.10
2019-03-15T18:08:15.713Z,8.90
2019-03-15T18:10:45.467Z,8.90
2019-03-15T18:13:15.350Z,8.90
2019-03-15T18:15:45.271Z,8.80
2019-03-15T18:18:15.209Z,8.70
2019-03-15T18:20:45.076Z,8.70
2019-03-15T18:23:14.929Z,8.70
2019-03-15T18:25:44.733Z,8.50
2019-03-15T18:28:14.576Z,8.50
2019-03-15T18:30:44.423Z,8.40
2019-03-15T18:33:14.180Z,8.50
2019-03-15T18:35:44.159Z,8.40
2019-03-15T18:38:13.941Z,8.30
2019-03-15T18:40:48.676Z,8.20
2019-03-15T18:43:18.814Z,8.30
2019-03-15T18:45:48.582Z,8.20
2019-03-15T18:48:18.585Z,8.10
2019-03-15T18:50:48.823Z,8.20
2019-03-15T18:53:18.695Z,8.30
2019-03-15T18:55:48.551Z,8.30
2019-03-15T18:58:18.428Z,8.30
2019-03-15T19:00:48.461Z,8.30
2019-03-15T19:03:18.585Z,8.20
2019-03-15T19:05:48.661Z,8.10
2019-03-15T19:08:18.533Z,8.10
2019-03-15T19:10:48.509Z,8.00
2019-03-15T19:13:18.283Z,7.90
2019-03-15T19:15:48.101Z,7.80
2019-03-15T19:18:17.837Z,7.90
2019-03-15T19:20:48.196Z,7.90
2019-03-15T19:23:18.129Z,7.90
2019-03-15T19:25:47.951Z,7.90
2019-03-15T19:28:17.841Z,7.90
2019-03-15T19:30:47.695Z,7.80
2019-03-15T19:33:17.561Z,7.70
2019-03-15T19:35:47.295Z,7.60
2019-03-15T19:38:17.236Z,7.50
2019-03-15T19:40:47.105Z,7.40
2019-03-15T19:43:17.031Z,7.40
2019-03-15T19:45:47.133Z,7.50
2019-03-15T19:48:16.919Z,7.50
2019-03-15T19:50:46.727Z,7.50
2019-03-15T19:53:16.698Z,7.40
2019-03-15T19:55:48.293Z,7.30
2019-03-15T19:58:18.078Z,7.40
2019-03-15T20:00:47.827Z,7.40
2019-03-15T20:03:17.586Z,7.40
2019-03-15T20:05:47.552Z,7.40
2019-03-15T20:08:17.395Z,7.50
2019-03-15T20:10:47.125Z,7.60
2019-03-15T20:13:16.833Z,7.60
2019-03-15T20:15:46.844Z,7.50
2019-03-15T20:18:16.632Z,7.60
2019-03-15T20:20:46.515Z,7.60
2019-03-15T20:23:16.280Z,7.60
2019-03-15T20:25:46.107Z,7.60
2019-03-15T20:28:15.925Z,7.70
2019-03-15T20:30:51.993Z,7.70
2019-03-15T20:33:20.227Z,7.50
2019-03-15T20:35:52.026Z,7.30
2019-03-15T20:38:21.662Z,7.20
2019-03-15T20:40:51.688Z,7.20
2019-03-15T20:43:21.731Z,7.20
2019-03-15T20:45:51.792Z,7.10
2019-03-15T20:48:21.706Z,7.20
2019-03-15T20:50:51.518Z,7.30
2019-03-15T20:53:21.756Z,7.30
2019-03-15T20:55:52.179Z,7.30
2019-03-15T20:58:22.418Z,7.20
2019-03-15T21:00:56.189Z,7.20
2019-03-15T21:03:26.212Z,7.10
2019-03-15T21:06:39.663Z,7.00
2019-03-15T21:09:09.751Z,7.00
2019-03-15T21:11:39.848Z,7.10
2019-03-15T21:14:11.022Z,7.10
2019-03-15T21:16:40.857Z,6.90
2019-03-15T21:19:10.718Z,6.80
2019-03-15T21:21:40.550Z,6.80
2019-03-15T21:24:10.312Z,6.70
2019-03-15T21:26:40.034Z,6.70
2019-03-15T21:29:11.878Z,6.70
2019-03-15T21:31:41.236Z,6.80
2019-03-15T21:34:11.391Z,6.70
2019-03-15T21:36:41.316Z,6.60
2019-03-15T21:39:11.102Z,6.60
2019-03-15T21:41:40.928Z,6.60
2019-03-15T21:44:10.650Z,6.50
2019-03-15T21:46:40.454Z,6.50
2019-03-15T21:49:10.248Z,6.50
2019-03-15T21:51:40.245Z,6.50
2019-03-15T21:54:10.386Z,6.50
2019-03-15T21:56:40.300Z,6.40
2019-03-15T21:59:10.267Z,6.40
2019-03-15T22:01:40.239Z,6.30
2019-03-15T22:04:09.992Z,6.20
2019-03-15T22:06:40.060Z,6.30
2019-03-15T22:09:09.968Z,6.30
2019-03-15T22:11:39.908Z,6.30
2019-03-15T22:14:09.901Z,6.40
2019-03-15T22:16:39.860Z,6.30
2019-03-15T22:19:09.775Z,6.20
2019-03-15T22:21:39.675Z,6.20
2019-03-15T22:24:09.545Z,6.20
2019-03-15T22:26:39.860Z,6.10
2019-03-15T22:29:09.821Z,6.20
2019-03-15T22:31:39.536Z,6.30
2019-03-15T22:34:09.643Z,6.30
2019-03-15T22:36:39.792Z,6.20
2019-03-15T22:39:09.861Z,6.30
2019-03-15T22:41:39.917Z,6.30
2019-03-15T22:44:10.049Z,6.40
2019-03-15T22:46:40.003Z,6.40
2019-03-15T22:49:10.066Z,6.50
2019-03-15T22:51:39.851Z,6.50
2019-03-15T22:54:09.643Z,6.50
2019-03-15T22:56:39.444Z,6.60
2019-03-15T22:59:09.382Z,6.60
2019-03-15T23:01:39.338Z,6.60
2019-03-15T23:04:09.445Z,6.70
2019-03-15T23:06:39.499Z,6.70
2019-03-15T23:09:09.678Z,6.70
2019-03-15T23:11:39.573Z,6.80
2019-03-15T23:14:09.608Z,6.80
2019-03-15T23:16:39.407Z,6.90
2019-03-15T23:19:09.132Z,6.80
2019-03-15T23:21:41.848Z,6.90
2019-03-15T23:24:12.694Z,7.00
2019-03-15T23:26:42.717Z,7.00
2019-03-15T23:29:12.707Z,7.00
2019-03-15T23:31:43.920Z,7.00
2019-03-15T23:34:14.179Z,7.00
2019-03-15T23:36:44.326Z,7.10
2019-03-15T23:39:14.211Z,7.10
2019-03-15T23:41:44.158Z,7.20
2019-03-15T23:44:14.012Z,7.20
2019-03-15T23:46:44.264Z,7.20
2019-03-15T23:49:14.085Z,7.20
2019-03-15T23:51:44.060Z,7.10
2019-03-15T23:54:13.996Z,7.20
2019-03-15T23:56:43.984Z,7.30
2019-03-15T23:59:13.934Z,7.30
